sensor_id;sensor_type;location;lat;lon;timestamp;P1;durP1;ratioP1;P2;durP2;ratioP2
27305;SDS011;14792;50.886;6.468;2022-12-05T00:02:05;66.47;;;34.80;;
27305;SDS011;14792;50.886;6.468;2022-12-05T00:05:06;69.27;;;33.00;;
27305;SDS011;14792;50.886;6.468;2022-12-05T00:08:08;77.00;;;36.73;;
27305;SDS011;14792;50.886;6.468;2022-12-05T00:11:13;73.57;;;34.85;;
27305;SDS011;14792;50.886;6.468;2022-12-05T00:14:14;73.60;;;35.30;;
27305;SDS011;14792;50.886;6.468;2022-12-05T00:17:16;80.35;;;36.42;;
27305;SDS011;14792;50.886;6.468;2022-12-05T00:20:17;82.22;;;37.70;;
27305;SDS011;14792;50.886;6.468;2022-12-05T00:23:19;77.17;;;37.20;;
27305;SDS011;14792;50.886;6.468;2022-12-05T00:26:20;78.20;;;37.40;;
27305;SDS011;14792;50.886;6.468;2022-12-05T00:29:22;86.63;;;37.88;;
27305;SDS011;14792;50.886;6.468;2022-12-05T00:32:23;86.17;;;38.13;;
27305;SDS011;14792;50.886;6.468;2022-12-05T00:35:25;91.82;;;39.90;;
27305;SDS011;14792;50.886;6.468;2022-12-05T00:38:28;79.03;;;37.42;;
27305;SDS011;14792;50.886;6.468;2022-12-05T00:41:29;78.25;;;36.90;;
27305;SDS011;14792;50.886;6.468;2022-12-05T00:44:31;82.40;;;37.80;;
27305;SDS011;14792;50.886;6.468;2022-12-05T00:47:35;80.17;;;36.58;;
27305;SDS011;14792;50.886;6.468;2022-12-05T00:50:37;85.20;;;37.48;;
27305;SDS011;14792;50.886;6.468;2022-12-05T00:53:38;80.87;;;37.30;;
27305;SDS011;14792;50.886;6.468;2022-12-05T00:56:40;84.67;;;38.73;;
27305;SDS011;14792;50.886;6.468;2022-12-05T00:59:41;79.72;;;37.05;;
27305;SDS011;14792;50.886;6.468;2022-12-05T01:02:43;79.58;;;36.55;;
27305;SDS011;14792;50.886;6.468;2022-12-05T01:05:45;79.22;;;37.13;;
27305;SDS011;14792;50.886;6.468;2022-12-05T01:08:46;81.30;;;37.08;;
27305;SDS011;14792;50.886;6.468;2022-12-05T01:11:48;82.15;;;38.10;;
27305;SDS011;14792;50.886;6.468;2022-12-05T01:14:49;80.47;;;37.42;;
27305;SDS011;14792;50.886;6.468;2022-12-05T01:17:51;82.90;;;38.63;;
27305;SDS011;14792;50.886;6.468;2022-12-05T01:20:52;79.95;;;37.53;;
27305;SDS011;14792;50.886;6.468;2022-12-05T01:23:55;85.17;;;38.40;;
27305;SDS011;14792;50.886;6.468;2022-12-05T01:26:57;89.17;;;39.30;;
27305;SDS011;14792;50.886;6.468;2022-12-05T01:33:00;88.52;;;38.10;;
27305;SDS011;14792;50.886;6.468;2022-12-05T01:36:02;93.55;;;40.25;;
27305;SDS011;14792;50.886;6.468;2022-12-05T01:39:04;83.95;;;38.50;;
27305;SDS011;14792;50.886;6.468;2022-12-05T01:42:05;85.77;;;38.38;;
27305;SDS011;14792;50.886;6.468;2022-12-05T01:45:12;90.53;;;38.65;;
27305;SDS011;14792;50.886;6.468;2022-12-05T01:48:11;93.33;;;38.73;;
27305;SDS011;14792;50.886;6.468;2022-12-05T01:51:12;87.65;;;39.35;;
27305;SDS011;14792;50.886;6.468;2022-12-05T01:54:15;100.95;;;38.98;;
27305;SDS011;14792;50.886;6.468;2022-12-05T01:57:16;88.42;;;38.42;;
27305;SDS011;14792;50.886;6.468;2022-12-05T02:00:18;84.52;;;38.35;;
27305;SDS011;14792;50.886;6.468;2022-12-05T02:03:19;81.57;;;37.40;;
27305;SDS011;14792;50.886;6.468;2022-12-05T02:06:20;89.67;;;38.48;;
27305;SDS011;14792;50.886;6.468;2022-12-05T02:09:22;82.37;;;37.58;;
27305;SDS011;14792;50.886;6.468;2022-12-05T02:12:23;92.50;;;39.50;;
27305;SDS011;14792;50.886;6.468;2022-12-05T02:16:31;85.47;;;36.90;;
27305;SDS011;14792;50.886;6.468;2022-12-05T02:32:05;87.30;;;37.55;;
27305;SDS011;14792;50.886;6.468;2022-12-05T02:35:11;90.55;;;38.42;;
27305;SDS011;14792;50.886;6.468;2022-12-05T02:41:30;90.60;;;38.67;;
27305;SDS011;14792;50.886;6.468;2022-12-05T02:44:35;76.90;;;35.00;;
27305;SDS011;14792;50.886;6.468;2022-12-05T02:47:42;84.45;;;37.00;;
27305;SDS011;14792;50.886;6.468;2022-12-05T02:50:39;90.42;;;37.67;;
27305;SDS011;14792;50.886;6.468;2022-12-05T02:53:41;82.25;;;36.28;;
27305;SDS011;14792;50.886;6.468;2022-12-05T02:56:43;79.90;;;34.67;;
27305;SDS011;14792;50.886;6.468;2022-12-05T02:59:44;79.60;;;33.95;;
27305;SDS011;14792;50.886;6.468;2022-12-05T03:02:46;81.37;;;35.23;;
27305;SDS011;14792;50.886;6.468;2022-12-05T03:09:12;125.92;;;37.23;;
27305;SDS011;14792;50.886;6.468;2022-12-05T03:12:15;79.17;;;35.15;;
27305;SDS011;14792;50.886;6.468;2022-12-05T03:15:17;81.12;;;33.58;;
27305;SDS011;14792;50.886;6.468;2022-12-05T03:18:20;75.45;;;35.48;;
27305;SDS011;14792;50.886;6.468;2022-12-05T03:21:34;73.83;;;33.58;;
27305;SDS011;14792;50.886;6.468;2022-12-05T03:24:36;74.62;;;33.23;;
27305;SDS011;14792;50.886;6.468;2022-12-05T03:27:54;78.92;;;34.65;;
27305;SDS011;14792;50.886;6.468;2022-12-05T03:30:52;71.40;;;33.55;;
27305;SDS011;14792;50.886;6.468;2022-12-05T03:33:53;73.55;;;33.05;;
27305;SDS011;14792;50.886;6.468;2022-12-05T03:36:55;63.50;;;31.55;;
27305;SDS011;14792;50.886;6.468;2022-12-05T03:40:02;64.32;;;31.97;;
27305;SDS011;14792;50.886;6.468;2022-12-05T03:43:21;66.10;;;31.57;;
27305;SDS011;14792;50.886;6.468;2022-12-05T03:46:25;62.90;;;31.45;;
27305;SDS011;14792;50.886;6.468;2022-12-05T03:52:37;64.50;;;28.67;;
27305;SDS011;14792;50.886;6.468;2022-12-05T03:55:37;57.20;;;26.55;;
27305;SDS011;14792;50.886;6.468;2022-12-05T03:58:52;49.83;;;25.37;;
27305;SDS011;14792;50.886;6.468;2022-12-05T04:01:55;50.23;;;26.42;;
27305;SDS011;14792;50.886;6.468;2022-12-05T04:05:05;50.03;;;26.15;;
27305;SDS011;14792;50.886;6.468;2022-12-05T04:08:10;46.00;;;25.08;;
27305;SDS011;14792;50.886;6.468;2022-12-05T04:11:13;44.23;;;23.95;;
27305;SDS011;14792;50.886;6.468;2022-12-05T04:14:17;41.77;;;23.47;;
27305;SDS011;14792;50.886;6.468;2022-12-05T04:23:51;39.53;;;23.45;;
27305;SDS011;14792;50.886;6.468;2022-12-05T04:26:55;39.65;;;22.17;;
27305;SDS011;14792;50.886;6.468;2022-12-05T04:30:02;40.52;;;23.07;;
27305;SDS011;14792;50.886;6.468;2022-12-05T04:33:09;39.08;;;22.17;;
27305;SDS011;14792;50.886;6.468;2022-12-05T04:36:11;41.20;;;23.40;;
27305;SDS011;14792;50.886;6.468;2022-12-05T04:39:29;34.60;;;21.52;;
27305;SDS011;14792;50.886;6.468;2022-12-05T04:42:41;37.15;;;21.40;;
27305;SDS011;14792;50.886;6.468;2022-12-05T04:45:43;39.20;;;22.77;;
27305;SDS011;14792;50.886;6.468;2022-12-05T04:48:46;36.28;;;22.15;;
27305;SDS011;14792;50.886;6.468;2022-12-05T04:51:46;36.35;;;22.22;;
27305;SDS011;14792;50.886;6.468;2022-12-05T04:54:52;37.45;;;20.82;;
27305;SDS011;14792;50.886;6.468;2022-12-05T04:57:55;34.48;;;20.48;;
27305;SDS011;14792;50.886;6.468;2022-12-05T05:01:18;34.58;;;21.23;;
27305;SDS011;14792;50.886;6.468;2022-12-05T05:04:23;36.40;;;21.15;;
27305;SDS011;14792;50.886;6.468;2022-12-05T05:07:28;36.25;;;21.73;;
27305;SDS011;14792;50.886;6.468;2022-12-05T05:10:32;33.05;;;20.17;;
27305;SDS011;14792;50.886;6.468;2022-12-05T05:13:34;34.95;;;21.82;;
27305;SDS011;14792;50.886;6.468;2022-12-05T05:16:37;34.50;;;21.23;;
27305;SDS011;14792;50.886;6.468;2022-12-05T05:19:37;32.23;;;20.20;;
27305;SDS011;14792;50.886;6.468;2022-12-05T05:22:39;36.75;;;21.40;;
27305;SDS011;14792;50.886;6.468;2022-12-05T05:25:40;38.40;;;21.90;;
27305;SDS011;14792;50.886;6.468;2022-12-05T05:28:42;44.20;;;23.90;;
27305;SDS011;14792;50.886;6.468;2022-12-05T05:31:43;42.43;;;23.77;;
27305;SDS011;14792;50.886;6.468;2022-12-05T05:34:45;42.58;;;23.67;;
27305;SDS011;14792;50.886;6.468;2022-12-05T05:37:46;48.33;;;25.77;;
27305;SDS011;14792;50.886;6.468;2022-12-05T05:40:48;53.73;;;26.87;;
27305;SDS011;14792;50.886;6.468;2022-12-05T05:43:50;49.77;;;26.60;;
27305;SDS011;14792;50.886;6.468;2022-12-05T05:46:51;55.67;;;26.65;;
27305;SDS011;14792;50.886;6.468;2022-12-05T05:49:53;50.10;;;26.02;;
27305;SDS011;14792;50.886;6.468;2022-12-05T05:52:55;60.65;;;30.27;;
27305;SDS011;14792;50.886;6.468;2022-12-05T05:56:00;53.13;;;27.95;;
27305;SDS011;14792;50.886;6.468;2022-12-05T05:58:59;55.43;;;28.23;;
27305;SDS011;14792;50.886;6.468;2022-12-05T06:02:00;63.80;;;28.02;;
27305;SDS011;14792;50.886;6.468;2022-12-05T06:05:02;58.13;;;28.20;;
27305;SDS011;14792;50.886;6.468;2022-12-05T06:08:03;53.08;;;27.02;;
27305;SDS011;14792;50.886;6.468;2022-12-05T06:11:08;56.63;;;28.17;;
27305;SDS011;14792;50.886;6.468;2022-12-05T06:14:12;50.15;;;27.22;;
27305;SDS011;14792;50.886;6.468;2022-12-05T06:17:14;52.83;;;28.10;;
27305;SDS011;14792;50.886;6.468;2022-12-05T06:20:15;47.60;;;26.02;;
27305;SDS011;14792;50.886;6.468;2022-12-05T06:23:17;53.48;;;27.15;;
27305;SDS011;14792;50.886;6.468;2022-12-05T06:26:19;61.18;;;33.00;;
27305;SDS011;14792;50.886;6.468;2022-12-05T06:29:20;62.15;;;33.00;;
27305;SDS011;14792;50.886;6.468;2022-12-05T06:32:21;67.05;;;33.18;;
27305;SDS011;14792;50.886;6.468;2022-12-05T06:35:23;48.45;;;26.40;;
27305;SDS011;14792;50.886;6.468;2022-12-05T06:38:26;43.17;;;25.90;;
27305;SDS011;14792;50.886;6.468;2022-12-05T06:41:27;42.98;;;24.98;;
27305;SDS011;14792;50.886;6.468;2022-12-05T06:44:29;44.67;;;24.47;;
27305;SDS011;14792;50.886;6.468;2022-12-05T06:47:30;40.65;;;24.87;;
27305;SDS011;14792;50.886;6.468;2022-12-05T06:50:32;44.53;;;25.23;;
27305;SDS011;14792;50.886;6.468;2022-12-05T06:53:34;44.03;;;25.05;;
27305;SDS011;14792;50.886;6.468;2022-12-05T06:56:35;41.08;;;24.55;;
27305;SDS011;14792;50.886;6.468;2022-12-05T06:59:37;39.38;;;23.90;;
27305;SDS011;14792;50.886;6.468;2022-12-05T07:02:38;40.70;;;23.92;;
27305;SDS011;14792;50.886;6.468;2022-12-05T07:05:40;42.93;;;25.60;;
27305;SDS011;14792;50.886;6.468;2022-12-05T07:08:42;47.67;;;27.93;;
27305;SDS011;14792;50.886;6.468;2022-12-05T07:11:47;40.17;;;23.70;;
27305;SDS011;14792;50.886;6.468;2022-12-05T07:14:47;47.70;;;27.95;;
27305;SDS011;14792;50.886;6.468;2022-12-05T07:17:49;41.23;;;25.90;;
27305;SDS011;14792;50.886;6.468;2022-12-05T07:20:57;50.55;;;27.17;;
27305;SDS011;14792;50.886;6.468;2022-12-05T07:23:58;46.00;;;26.20;;
27305;SDS011;14792;50.886;6.468;2022-12-05T07:27:00;56.68;;;28.00;;
27305;SDS011;14792;50.886;6.468;2022-12-05T07:30:02;55.78;;;29.60;;
27305;SDS011;14792;50.886;6.468;2022-12-05T07:33:03;52.38;;;27.70;;
27305;SDS011;14792;50.886;6.468;2022-12-05T07:36:08;52.33;;;27.82;;
27305;SDS011;14792;50.886;6.468;2022-12-05T07:39:09;52.78;;;27.25;;
27305;SDS011;14792;50.886;6.468;2022-12-05T07:42:11;65.45;;;32.15;;
27305;SDS011;14792;50.886;6.468;2022-12-05T07:45:12;54.03;;;29.12;;
27305;SDS011;14792;50.886;6.468;2022-12-05T07:48:14;53.05;;;29.67;;
27305;SDS011;14792;50.886;6.468;2022-12-05T07:51:16;53.73;;;29.45;;
27305;SDS011;14792;50.886;6.468;2022-12-05T07:54:17;72.58;;;36.15;;
27305;SDS011;14792;50.886;6.468;2022-12-05T07:57:19;53.68;;;31.05;;
27305;SDS011;14792;50.886;6.468;2022-12-05T08:00:20;55.23;;;30.23;;
27305;SDS011;14792;50.886;6.468;2022-12-05T08:03:22;52.88;;;29.50;;
27305;SDS011;14792;50.886;6.468;2022-12-05T08:06:24;50.20;;;28.70;;
27305;SDS011;14792;50.886;6.468;2022-12-05T08:09:28;54.05;;;29.65;;
27305;SDS011;14792;50.886;6.468;2022-12-05T08:12:29;45.80;;;26.80;;
27305;SDS011;14792;50.886;6.468;2022-12-05T08:15:32;48.80;;;28.47;;
27305;SDS011;14792;50.886;6.468;2022-12-05T08:18:33;53.65;;;29.92;;
27305;SDS011;14792;50.886;6.468;2022-12-05T08:21:34;53.55;;;30.43;;
27305;SDS011;14792;50.886;6.468;2022-12-05T08:24:36;43.42;;;27.77;;
27305;SDS011;14792;50.886;6.468;2022-12-05T08:27:37;47.15;;;26.23;;
27305;SDS011;14792;50.886;6.468;2022-12-05T08:30:39;40.85;;;25.60;;
27305;SDS011;14792;50.886;6.468;2022-12-05T08:33:41;45.73;;;25.17;;
27305;SDS011;14792;50.886;6.468;2022-12-05T08:36:42;40.65;;;23.98;;
27305;SDS011;14792;50.886;6.468;2022-12-05T08:39:44;42.88;;;24.07;;
27305;SDS011;14792;50.886;6.468;2022-12-05T08:42:45;43.15;;;26.55;;
27305;SDS011;14792;50.886;6.468;2022-12-05T08:45:50;39.38;;;24.02;;
27305;SDS011;14792;50.886;6.468;2022-12-05T08:48:51;38.78;;;24.30;;
27305;SDS011;14792;50.886;6.468;2022-12-05T08:51:53;43.05;;;24.27;;
27305;SDS011;14792;50.886;6.468;2022-12-05T08:54:55;41.83;;;24.92;;
27305;SDS011;14792;50.886;6.468;2022-12-05T08:57:58;40.20;;;25.15;;
27305;SDS011;14792;50.886;6.468;2022-12-05T09:01:05;40.83;;;24.12;;
27305;SDS011;14792;50.886;6.468;2022-12-05T09:04:04;35.78;;;22.48;;
27305;SDS011;14792;50.886;6.468;2022-12-05T09:07:05;35.13;;;22.05;;
27305;SDS011;14792;50.886;6.468;2022-12-05T09:10:07;40.23;;;24.07;;
27305;SDS011;14792;50.886;6.468;2022-12-05T09:13:09;35.13;;;23.22;;
27305;SDS011;14792;50.886;6.468;2022-12-05T09:16:11;36.23;;;23.00;;
27305;SDS011;14792;50.886;6.468;2022-12-05T09:19:16;36.93;;;24.77;;
27305;SDS011;14792;50.886;6.468;2022-12-05T09:22:13;43.65;;;26.95;;
27305;SDS011;14792;50.886;6.468;2022-12-05T09:25:15;44.40;;;26.25;;
27305;SDS011;14792;50.886;6.468;2022-12-05T09:28:16;40.73;;;25.20;;
27305;SDS011;14792;50.886;6.468;2022-12-05T09:31:19;41.10;;;24.67;;
27305;SDS011;14792;50.886;6.468;2022-12-05T09:34:20;41.20;;;24.80;;
27305;SDS011;14792;50.886;6.468;2022-12-05T09:37:21;38.63;;;24.70;;
27305;SDS011;14792;50.886;6.468;2022-12-05T09:40:23;43.13;;;26.93;;
27305;SDS011;14792;50.886;6.468;2022-12-05T09:43:27;47.25;;;28.25;;
27305;SDS011;14792;50.886;6.468;2022-12-05T09:46:44;50.28;;;28.52;;
27305;SDS011;14792;50.886;6.468;2022-12-05T09:49:29;41.45;;;26.52;;
27305;SDS011;14792;50.886;6.468;2022-12-05T09:52:32;49.70;;;27.87;;
27305;SDS011;14792;50.886;6.468;2022-12-05T09:55:56;49.53;;;28.70;;
27305;SDS011;14792;50.886;6.468;2022-12-05T10:01:40;44.13;;;26.55;;
27305;SDS011;14792;50.886;6.468;2022-12-05T10:04:59;41.68;;;24.87;;
27305;SDS011;14792;50.886;6.468;2022-12-05T10:08:19;49.67;;;29.55;;
27305;SDS011;14792;50.886;6.468;2022-12-05T10:11:27;45.85;;;27.50;;
27305;SDS011;14792;50.886;6.468;2022-12-05T10:17:47;41.75;;;25.97;;
27305;SDS011;14792;50.886;6.468;2022-12-05T10:20:59;50.98;;;26.87;;
27305;SDS011;14792;50.886;6.468;2022-12-05T10:24:03;50.67;;;30.48;;
27305;SDS011;14792;50.886;6.468;2022-12-05T10:27:05;50.28;;;29.12;;
27305;SDS011;14792;50.886;6.468;2022-12-05T10:30:12;49.85;;;29.02;;
27305;SDS011;14792;50.886;6.468;2022-12-05T10:33:15;49.42;;;28.02;;
27305;SDS011;14792;50.886;6.468;2022-12-05T10:36:15;46.18;;;28.83;;
27305;SDS011;14792;50.886;6.468;2022-12-05T10:39:17;56.53;;;30.15;;
27305;SDS011;14792;50.886;6.468;2022-12-05T10:42:20;54.88;;;30.08;;
27305;SDS011;14792;50.886;6.468;2022-12-05T10:45:21;56.88;;;31.25;;
27305;SDS011;14792;50.886;6.468;2022-12-05T10:48:22;55.40;;;30.88;;
27305;SDS011;14792;50.886;6.468;2022-12-05T10:51:24;52.88;;;30.97;;
27305;SDS011;14792;50.886;6.468;2022-12-05T10:54:27;58.10;;;30.75;;
27305;SDS011;14792;50.886;6.468;2022-12-05T10:57:27;50.28;;;28.98;;
27305;SDS011;14792;50.886;6.468;2022-12-05T11:00:31;52.88;;;30.95;;
27305;SDS011;14792;50.886;6.468;2022-12-05T11:03:30;58.85;;;32.58;;
27305;SDS011;14792;50.886;6.468;2022-12-05T11:06:31;57.58;;;32.88;;
27305;SDS011;14792;50.886;6.468;2022-12-05T11:09:36;61.23;;;32.88;;
27305;SDS011;14792;50.886;6.468;2022-12-05T11:12:38;63.08;;;32.83;;
27305;SDS011;14792;50.886;6.468;2022-12-05T11:15:43;58.75;;;33.45;;
27305;SDS011;14792;50.886;6.468;2022-12-05T11:18:41;64.42;;;34.75;;
27305;SDS011;14792;50.886;6.468;2022-12-05T11:21:42;85.17;;;42.90;;
27305;SDS011;14792;50.886;6.468;2022-12-05T11:24:44;67.53;;;35.03;;
27305;SDS011;14792;50.886;6.468;2022-12-05T11:27:45;70.20;;;36.95;;
27305;SDS011;14792;50.886;6.468;2022-12-05T11:37:13;84.75;;;38.98;;
27305;SDS011;14792;50.886;6.468;2022-12-05T11:40:16;76.47;;;36.40;;
27305;SDS011;14792;50.886;6.468;2022-12-05T11:43:21;70.35;;;36.50;;
27305;SDS011;14792;50.886;6.468;2022-12-05T11:46:27;69.70;;;36.23;;
27305;SDS011;14792;50.886;6.468;2022-12-05T11:49:43;78.85;;;37.98;;
27305;SDS011;14792;50.886;6.468;2022-12-05T11:59:43;70.62;;;35.92;;
27305;SDS011;14792;50.886;6.468;2022-12-05T12:12:21;69.17;;;35.88;;
27305;SDS011;14792;50.886;6.468;2022-12-05T12:22:03;73.85;;;37.15;;
27305;SDS011;14792;50.886;6.468;2022-12-05T12:28:42;68.57;;;35.52;;
27305;SDS011;14792;50.886;6.468;2022-12-05T12:31:58;72.37;;;36.17;;
27305;SDS011;14792;50.886;6.468;2022-12-05T12:38:18;79.60;;;41.10;;
27305;SDS011;14792;50.886;6.468;2022-12-05T12:51:24;91.32;;;40.35;;
27305;SDS011;14792;50.886;6.468;2022-12-05T13:01:00;85.85;;;40.25;;
27305;SDS011;14792;50.886;6.468;2022-12-05T13:04:05;82.43;;;38.80;;
27305;SDS011;14792;50.886;6.468;2022-12-05T13:07:09;86.25;;;40.00;;
27305;SDS011;14792;50.886;6.468;2022-12-05T13:13:32;70.78;;;37.35;;
27305;SDS011;14792;50.886;6.468;2022-12-05T13:16:33;74.67;;;38.85;;
27305;SDS011;14792;50.886;6.468;2022-12-05T13:19:42;85.62;;;43.40;;
27305;SDS011;14792;50.886;6.468;2022-12-05T13:22:43;79.47;;;38.75;;
27305;SDS011;14792;50.886;6.468;2022-12-05T13:25:45;79.67;;;39.10;;
27305;SDS011;14792;50.886;6.468;2022-12-05T13:28:53;80.28;;;40.25;;
27305;SDS011;14792;50.886;6.468;2022-12-05T13:31:54;82.85;;;41.90;;
27305;SDS011;14792;50.886;6.468;2022-12-05T13:38:15;85.92;;;45.88;;
27305;SDS011;14792;50.886;6.468;2022-12-05T13:41:42;79.75;;;42.80;;
27305;SDS011;14792;50.886;6.468;2022-12-05T13:48:27;85.67;;;47.70;;
27305;SDS011;14792;50.886;6.468;2022-12-05T13:51:12;122.90;;;57.17;;
27305;SDS011;14792;50.886;6.468;2022-12-05T13:54:23;109.92;;;57.53;;
27305;SDS011;14792;50.886;6.468;2022-12-05T14:00:40;96.92;;;50.15;;
27305;SDS011;14792;50.886;6.468;2022-12-05T14:09:53;81.25;;;43.48;;
27305;SDS011;14792;50.886;6.468;2022-12-05T14:12:56;75.28;;;41.18;;
27305;SDS011;14792;50.886;6.468;2022-12-05T14:19:23;79.50;;;41.40;;
27305;SDS011;14792;50.886;6.468;2022-12-05T14:22:24;76.60;;;40.75;;
27305;SDS011;14792;50.886;6.468;2022-12-05T14:25:34;82.90;;;41.63;;
27305;SDS011;14792;50.886;6.468;2022-12-05T14:28:42;75.45;;;39.63;;
27305;SDS011;14792;50.886;6.468;2022-12-05T14:38:03;73.57;;;40.45;;
27305;SDS011;14792;50.886;6.468;2022-12-05T14:41:26;131.78;;;62.60;;
27305;SDS011;14792;50.886;6.468;2022-12-05T14:44:15;128.47;;;63.45;;
27305;SDS011;14792;50.886;6.468;2022-12-05T14:47:16;98.30;;;55.98;;
27305;SDS011;14792;50.886;6.468;2022-12-05T14:50:31;84.97;;;47.00;;
27305;SDS011;14792;50.886;6.468;2022-12-05T14:56:29;80.60;;;43.45;;
27305;SDS011;14792;50.886;6.468;2022-12-05T14:59:42;78.52;;;41.30;;
27305;SDS011;14792;50.886;6.468;2022-12-05T15:02:41;73.78;;;40.48;;
27305;SDS011;14792;50.886;6.468;2022-12-05T15:05:40;75.32;;;40.23;;
27305;SDS011;14792;50.886;6.468;2022-12-05T15:08:46;78.70;;;42.00;;
27305;SDS011;14792;50.886;6.468;2022-12-05T15:11:46;75.03;;;40.67;;
27305;SDS011;14792;50.886;6.468;2022-12-05T15:21:35;74.85;;;40.08;;
27305;SDS011;14792;50.886;6.468;2022-12-05T15:24:37;91.80;;;43.40;;
27305;SDS011;14792;50.886;6.468;2022-12-05T15:27:38;80.05;;;41.45;;
27305;SDS011;14792;50.886;6.468;2022-12-05T15:30:39;80.92;;;41.70;;
27305;SDS011;14792;50.886;6.468;2022-12-05T15:33:48;93.30;;;44.35;;
27305;SDS011;14792;50.886;6.468;2022-12-05T15:36:45;83.85;;;41.28;;
27305;SDS011;14792;50.886;6.468;2022-12-05T15:42:55;82.37;;;42.98;;
27305;SDS011;14792;50.886;6.468;2022-12-05T15:46:08;82.60;;;41.13;;
27305;SDS011;14792;50.886;6.468;2022-12-05T15:49:26;77.30;;;41.25;;
27305;SDS011;14792;50.886;6.468;2022-12-05T15:55:56;86.17;;;42.23;;
27305;SDS011;14792;50.886;6.468;2022-12-05T15:59:01;87.33;;;40.33;;
27305;SDS011;14792;50.886;6.468;2022-12-05T16:02:03;77.92;;;41.15;;
27305;SDS011;14792;50.886;6.468;2022-12-05T16:05:03;83.37;;;43.00;;
27305;SDS011;14792;50.886;6.468;2022-12-05T16:08:04;84.52;;;41.65;;
27305;SDS011;14792;50.886;6.468;2022-12-05T16:11:07;85.50;;;41.95;;
27305;SDS011;14792;50.886;6.468;2022-12-05T16:14:07;79.35;;;42.75;;
27305;SDS011;14792;50.886;6.468;2022-12-05T16:17:12;80.60;;;42.35;;
27305;SDS011;14792;50.886;6.468;2022-12-05T16:23:58;85.50;;;45.60;;
27305;SDS011;14792;50.886;6.468;2022-12-05T16:26:36;83.03;;;44.83;;
27305;SDS011;14792;50.886;6.468;2022-12-05T16:29:38;97.82;;;49.42;;
27305;SDS011;14792;50.886;6.468;2022-12-05T16:32:40;87.10;;;43.87;;
27305;SDS011;14792;50.886;6.468;2022-12-05T16:35:42;85.07;;;42.98;;
27305;SDS011;14792;50.886;6.468;2022-12-05T16:38:43;83.35;;;40.75;;
27305;SDS011;14792;50.886;6.468;2022-12-05T16:41:45;89.83;;;42.90;;
27305;SDS011;14792;50.886;6.468;2022-12-05T16:47:54;87.78;;;44.95;;
27305;SDS011;14792;50.886;6.468;2022-12-05T16:54:11;98.50;;;51.02;;
27305;SDS011;14792;50.886;6.468;2022-12-05T16:57:13;91.00;;;47.65;;
27305;SDS011;14792;50.886;6.468;2022-12-05T17:00:15;95.62;;;48.52;;
27305;SDS011;14792;50.886;6.468;2022-12-05T17:03:16;90.45;;;46.48;;
27305;SDS011;14792;50.886;6.468;2022-12-05T17:06:18;89.00;;;45.73;;
27305;SDS011;14792;50.886;6.468;2022-12-05T17:09:19;100.72;;;45.43;;
27305;SDS011;14792;50.886;6.468;2022-12-05T17:12:22;84.37;;;43.17;;
27305;SDS011;14792;50.886;6.468;2022-12-05T17:15:23;93.80;;;45.45;;
27305;SDS011;14792;50.886;6.468;2022-12-05T17:18:25;84.20;;;42.75;;
27305;SDS011;14792;50.886;6.468;2022-12-05T17:21:28;92.70;;;45.78;;
27305;SDS011;14792;50.886;6.468;2022-12-05T17:24:28;88.22;;;45.25;;
27305;SDS011;14792;50.886;6.468;2022-12-05T17:27:30;82.60;;;43.95;;
27305;SDS011;14792;50.886;6.468;2022-12-05T17:30:31;93.60;;;45.85;;
27305;SDS011;14792;50.886;6.468;2022-12-05T17:33:33;94.90;;;48.92;;
27305;SDS011;14792;50.886;6.468;2022-12-05T17:36:34;87.67;;;46.35;;
27305;SDS011;14792;50.886;6.468;2022-12-05T17:39:36;91.40;;;45.88;;
27305;SDS011;14792;50.886;6.468;2022-12-05T17:42:40;80.25;;;43.52;;
27305;SDS011;14792;50.886;6.468;2022-12-05T17:45:42;91.37;;;45.63;;
27305;SDS011;14792;50.886;6.468;2022-12-05T17:48:44;83.78;;;45.20;;
27305;SDS011;14792;50.886;6.468;2022-12-05T17:51:45;89.42;;;44.58;;
27305;SDS011;14792;50.886;6.468;2022-12-05T17:54:47;82.78;;;43.30;;
27305;SDS011;14792;50.886;6.468;2022-12-05T17:57:48;87.82;;;43.23;;
27305;SDS011;14792;50.886;6.468;2022-12-05T18:00:50;84.92;;;43.73;;
27305;SDS011;14792;50.886;6.468;2022-12-05T18:03:51;78.95;;;41.50;;
27305;SDS011;14792;50.886;6.468;2022-12-05T18:06:53;79.60;;;40.60;;
27305;SDS011;14792;50.886;6.468;2022-12-05T18:09:55;85.38;;;42.43;;
27305;SDS011;14792;50.886;6.468;2022-12-05T18:13:00;72.85;;;39.18;;
27305;SDS011;14792;50.886;6.468;2022-12-05T18:16:02;70.42;;;40.88;;
27305;SDS011;14792;50.886;6.468;2022-12-05T18:19:03;76.55;;;41.08;;
27305;SDS011;14792;50.886;6.468;2022-12-05T18:22:05;74.07;;;41.48;;
27305;SDS011;14792;50.886;6.468;2022-12-05T18:25:07;85.80;;;44.08;;
27305;SDS011;14792;50.886;6.468;2022-12-05T18:28:08;76.62;;;40.52;;
27305;SDS011;14792;50.886;6.468;2022-12-05T18:31:10;75.55;;;43.98;;
27305;SDS011;14792;50.886;6.468;2022-12-05T18:34:11;70.15;;;39.42;;
27305;SDS011;14792;50.886;6.468;2022-12-05T18:37:13;70.78;;;40.17;;
27305;SDS011;14792;50.886;6.468;2022-12-05T18:40:14;71.30;;;40.43;;
27305;SDS011;14792;50.886;6.468;2022-12-05T18:43:16;72.20;;;40.50;;
27305;SDS011;14792;50.886;6.468;2022-12-05T18:46:18;72.67;;;40.00;;
27305;SDS011;14792;50.886;6.468;2022-12-05T18:49:19;66.25;;;37.13;;
27305;SDS011;14792;50.886;6.468;2022-12-05T18:52:21;64.55;;;38.05;;
27305;SDS011;14792;50.886;6.468;2022-12-05T18:55:22;65.22;;;37.50;;
27305;SDS011;14792;50.886;6.468;2022-12-05T18:58:24;68.57;;;35.23;;
27305;SDS011;14792;50.886;6.468;2022-12-05T19:01:28;58.65;;;33.78;;
27305;SDS011;14792;50.886;6.468;2022-12-05T19:04:30;59.73;;;33.80;;
27305;SDS011;14792;50.886;6.468;2022-12-05T19:07:31;57.53;;;33.70;;
27305;SDS011;14792;50.886;6.468;2022-12-05T19:10:34;58.23;;;33.90;;
27305;SDS011;14792;50.886;6.468;2022-12-05T19:13:35;57.13;;;34.67;;
27305;SDS011;14792;50.886;6.468;2022-12-05T19:16:36;60.80;;;36.28;;
27305;SDS011;14792;50.886;6.468;2022-12-05T19:19:38;53.68;;;34.33;;
27305;SDS011;14792;50.886;6.468;2022-12-05T19:22:39;56.15;;;33.58;;
27305;SDS011;14792;50.886;6.468;2022-12-05T19:25:41;55.48;;;32.70;;
27305;SDS011;14792;50.886;6.468;2022-12-05T19:28:43;60.92;;;33.75;;
27305;SDS011;14792;50.886;6.468;2022-12-05T19:31:44;51.90;;;32.35;;
27305;SDS011;14792;50.886;6.468;2022-12-05T19:34:46;53.13;;;32.67;;
27305;SDS011;14792;50.886;6.468;2022-12-05T19:37:47;55.48;;;33.05;;
27305;SDS011;14792;50.886;6.468;2022-12-05T19:40:55;48.73;;;31.42;;
27305;SDS011;14792;50.886;6.468;2022-12-05T19:43:59;57.15;;;34.27;;
27305;SDS011;14792;50.886;6.468;2022-12-05T19:47:00;50.88;;;32.98;;
27305;SDS011;14792;50.886;6.468;2022-12-05T19:50:02;46.73;;;29.70;;
27305;SDS011;14792;50.886;6.468;2022-12-05T19:53:04;49.85;;;31.37;;
27305;SDS011;14792;50.886;6.468;2022-12-05T19:56:06;53.73;;;30.65;;
27305;SDS011;14792;50.886;6.468;2022-12-05T19:59:07;44.65;;;29.25;;
27305;SDS011;14792;50.886;6.468;2022-12-05T20:02:08;45.45;;;29.10;;
27305;SDS011;14792;50.886;6.468;2022-12-05T20:05:10;47.43;;;29.67;;
27305;SDS011;14792;50.886;6.468;2022-12-05T20:08:12;50.15;;;31.07;;
27305;SDS011;14792;50.886;6.468;2022-12-05T20:11:14;46.90;;;30.08;;
27305;SDS011;14792;50.886;6.468;2022-12-05T20:14:15;46.63;;;29.20;;
27305;SDS011;14792;50.886;6.468;2022-12-05T20:17:16;44.33;;;25.23;;